createdAt,value
2023-05-14T00:01:00.085Z,12.35
2023-05-14T00:03:26.558Z,12.33
2023-05-14T00:05:52.950Z,12.32
2023-05-14T00:08:19.311Z,12.32
2023-05-14T00:10:45.668Z,12.31
2023-05-14T00:13:12.050Z,12.31
2023-05-14T00:15:38.529Z,12.29
2023-05-14T00:18:05.014Z,12.27
2023-05-14T00:20:31.616Z,12.26
2023-05-14T00:22:57.955Z,12.21
2023-05-14T00:25:24.385Z,12.14
2023-05-14T00:27:50.983Z,12.06
2023-05-14T00:30:17.364Z,11.98
2023-05-14T00:32:43.870Z,11.92
2023-05-14T00:35:10.318Z,11.88
2023-05-14T00:37:37.258Z,11.84
2023-05-14T00:40:04.326Z,11.82
2023-05-14T00:42:30.671Z,11.85
2023-05-14T00:44:57.199Z,11.84
2023-05-14T00:47:23.570Z,11.85
2023-05-14T00:49:49.934Z,11.84
2023-05-14T00:52:16.760Z,11.83
2023-05-14T00:54:43.171Z,11.79
2023-05-14T00:57:09.583Z,11.77
2023-05-14T00:59:35.991Z,11.72
2023-05-14T01:02:02.392Z,11.70
2023-05-14T01:04:28.920Z,11.71
2023-05-14T01:07:01.001Z,11.68
2023-05-14T01:09:52.271Z,11.65
2023-05-14T01:12:34.750Z,11.63
2023-05-14T01:15:22.695Z,11.53
2023-05-14T01:17:53.957Z,11.42
2023-05-14T01:20:20.476Z,11.35
2023-05-14T01:22:46.819Z,11.34
2023-05-14T01:25:13.403Z,11.30
2023-05-14T01:27:44.391Z,11.26
2023-05-14T01:30:23.879Z,11.22
2023-05-14T01:32:54.788Z,11.17
2023-05-14T01:35:22.615Z,11.12
2023-05-14T01:37:49.263Z,11.10
2023-05-14T01:40:15.659Z,11.08
2023-05-14T01:42:42.244Z,11.05
2023-05-14T01:45:09.269Z,11.02
2023-05-14T01:47:35.983Z,10.97
2023-05-14T01:50:02.631Z,10.93
2023-05-14T01:52:28.974Z,10.92
2023-05-14T01:54:55.551Z,10.88
2023-05-14T01:57:21.906Z,10.82
2023-05-14T01:59:48.251Z,10.78
2023-05-14T02:02:14.774Z,10.73
2023-05-14T02:04:41.142Z,10.71
2023-05-14T02:07:07.692Z,10.65
2023-05-14T02:09:34.058Z,10.59
2023-05-14T02:12:00.743Z,10.57
2023-05-14T02:14:27.329Z,10.54
2023-05-14T02:16:53.690Z,10.52
2023-05-14T02:19:20.035Z,10.50
2023-05-14T02:21:46.930Z,10.45
2023-05-14T02:24:13.352Z,10.43
2023-05-14T02:26:39.784Z,10.40
2023-05-14T02:29:06.414Z,10.41
2023-05-14T02:31:32.909Z,10.36
2023-05-14T02:34:01.275Z,10.36
2023-05-14T02:36:27.835Z,10.33
2023-05-14T02:38:54.202Z,10.28
2023-05-14T02:41:21.676Z,10.23
2023-05-14T02:43:48.072Z,10.21
2023-05-14T02:46:14.442Z,10.20
2023-05-14T02:48:41.227Z,10.18
2023-05-14T02:51:07.818Z,10.17
2023-05-14T02:53:34.157Z,10.13
2023-05-14T02:56:00.735Z,10.13
2023-05-14T02:58:28.330Z,10.14
2023-05-14T03:00:55.100Z,10.16
2023-05-14T03:03:22.083Z,10.16
2023-05-14T03:05:49.198Z,10.16
2023-05-14T03:08:15.533Z,10.15
2023-05-14T03:10:41.908Z,10.11
2023-05-14T03:13:08.470Z,10.10
2023-05-14T03:15:34.826Z,10.12
2023-05-14T03:18:01.188Z,10.10
2023-05-14T03:20:27.641Z,10.13
2023-05-14T03:22:54.490Z,10.13
2023-05-14T03:25:20.828Z,10.07
2023-05-14T03:27:47.451Z,9.99
2023-05-14T03:30:14.080Z,9.95
2023-05-14T03:32:41.195Z,9.94
2023-05-14T03:35:08.043Z,9.93
2023-05-14T03:37:34.410Z,9.92
2023-05-14T03:40:00.753Z,9.91
2023-05-14T03:42:27.290Z,9.91
2023-05-14T03:44:53.712Z,9.86
2023-05-14T03:47:20.260Z,9.90
2023-05-14T03:49:46.613Z,9.87
2023-05-14T03:52:13.006Z,9.86
2023-05-14T03:54:41.371Z,9.83
2023-05-14T03:57:07.757Z,9.84
2023-05-14T03:59:34.514Z,9.83
2023-05-14T04:02:00.911Z,9.83
2023-05-14T04:04:27.293Z,9.85
2023-05-14T04:06:53.846Z,9.85
2023-05-14T04:09:20.277Z,9.89
2023-05-14T04:11:46.612Z,9.89
2023-05-14T04:14:13.001Z,9.90
2023-05-14T04:16:39.537Z,9.94
2023-05-14T04:19:06.062Z,9.96
2023-05-14T04:21:32.703Z,10.02
2023-05-14T04:23:59.081Z,10.07
2023-05-14T04:26:25.546Z,10.08
2023-05-14T04:28:52.894Z,10.12
2023-05-14T04:31:19.593Z,10.15
2023-05-14T04:33:45.949Z,10.20
2023-05-14T04:36:12.593Z,10.25
2023-05-14T04:38:38.948Z,10.30
2023-05-14T04:41:05.971Z,10.33
2023-05-14T04:43:32.391Z,10.38
2023-05-14T04:45:58.784Z,10.44
2023-05-14T04:48:25.314Z,10.48
2023-05-14T04:50:52.271Z,10.54
2023-05-14T04:53:18.635Z,10.57
2023-05-14T04:55:44.983Z,10.60
2023-05-14T04:58:11.624Z,10.66
2023-05-14T05:00:38.256Z,10.68
2023-05-14T05:03:04.714Z,10.71
2023-05-14T05:05:31.367Z,10.76
2023-05-14T05:07:57.717Z,10.80
2023-05-14T05:10:24.530Z,10.82
2023-05-14T05:12:51.099Z,10.85
2023-05-14T05:15:17.504Z,10.93
2023-05-14T05:17:43.938Z,10.96
2023-05-14T05:20:10.770Z,10.99
2023-05-14T05:22:37.195Z,11.07
2023-05-14T05:25:06.674Z,11.12
2023-05-14T05:27:35.984Z,11.21
2023-05-14T05:30:02.859Z,11.28
2023-05-14T05:32:29.676Z,11.35
2023-05-14T05:34:56.670Z,11.44
2023-05-14T05:37:23.024Z,11.52
2023-05-14T05:39:49.586Z,11.59
2023-05-14T05:42:15.927Z,11.70
2023-05-14T05:44:42.293Z,11.83
2023-05-14T05:47:08.840Z,11.88
2023-05-14T05:49:36.841Z,11.96
2023-05-14T05:52:04.087Z,11.96
2023-05-14T05:54:32.162Z,12.08
2023-05-14T05:56:59.178Z,12.17
2023-05-14T05:59:25.789Z,12.28
2023-05-14T06:01:52.179Z,12.34
2023-05-14T06:04:18.721Z,12.33
2023-05-14T06:06:45.065Z,12.39
2023-05-14T06:09:11.438Z,12.55
2023-05-14T06:11:37.802Z,12.60
2023-05-14T06:14:04.618Z,12.69
2023-05-14T06:16:31.106Z,12.74
2023-05-14T06:18:57.596Z,12.91
2023-05-14T06:21:23.968Z,13.07
2023-05-14T06:23:50.371Z,13.21
2023-05-14T06:26:16.946Z,13.36
2023-05-14T06:28:43.322Z,13.51
2023-05-14T06:31:09.869Z,13.61
2023-05-14T06:33:36.593Z,13.68
2023-05-14T06:36:06.862Z,13.76
2023-05-14T06:38:33.398Z,13.82
2023-05-14T06:40:59.986Z,13.84
2023-05-14T06:43:26.400Z,13.89
2023-05-14T06:45:52.836Z,13.91
2023-05-14T06:48:19.694Z,13.90
2023-05-14T06:50:46.829Z,13.90
2023-05-14T06:53:13.285Z,13.90
2023-05-14T06:55:39.764Z,13.93
2023-05-14T06:58:09.316Z,13.92
2023-05-14T07:00:35.709Z,13.93
2023-05-14T07:03:02.151Z,13.91
2023-05-14T07:05:28.540Z,13.92
2023-05-14T07:07:55.204Z,13.92
2023-05-14T07:10:21.889Z,13.93
2023-05-14T07:12:48.943Z,14.01
2023-05-14T07:15:15.732Z,14.12
2023-05-14T07:17:42.337Z,14.21
2023-05-14T07:20:09.259Z,14.34
2023-05-14T07:22:35.657Z,14.45
2023-05-14T07:25:03.086Z,14.57
2023-05-14T07:27:29.555Z,14.68
2023-05-14T07:29:55.899Z,14.83
2023-05-14T07:32:22.437Z,14.98
2023-05-14T07:34:48.898Z,15.13
2023-05-14T07:37:15.256Z,15.31
2023-05-14T07:39:41.815Z,15.50
2023-05-14T07:42:08.213Z,15.65
2023-05-14T07:44:34.573Z,15.78
2023-05-14T07:47:01.012Z,15.77
2023-05-14T07:49:27.376Z,15.74
2023-05-14T07:51:53.736Z,15.81
2023-05-14T07:54:20.307Z,15.85
2023-05-14T07:56:46.711Z,15.89
2023-05-14T07:59:13.055Z,15.90
2023-05-14T08:01:39.646Z,15.86
2023-05-14T08:04:06.357Z,15.90
2023-05-14T08:06:33.190Z,16.08
2023-05-14T08:08:59.587Z,16.29
2023-05-14T08:11:26.184Z,16.45
2023-05-14T08:13:52.749Z,16.57
2023-05-14T08:16:19.193Z,16.68
2023-05-14T08:18:45.602Z,16.83
2023-05-14T08:21:11.984Z,16.87
2023-05-14T08:23:38.446Z,17.07
2023-05-14T08:26:04.889Z,17.15
2023-05-14T08:28:31.244Z,17.22
2023-05-14T08:30:57.673Z,17.34
2023-05-14T08:33:24.075Z,17.32
2023-05-14T08:35:52.837Z,17.28
2023-05-14T08:38:19.360Z,17.30
2023-05-14T08:41:05.116Z,17.32
2023-05-14T08:43:41.447Z,17.34
2023-05-14T08:46:07.991Z,17.40
2023-05-14T08:48:34.692Z,17.44
2023-05-14T08:51:01.408Z,17.51
2023-05-14T08:53:27.852Z,17.55
2023-05-14T08:55:54.308Z,17.53
2023-05-14T08:58:20.920Z,17.35
2023-05-14T09:00:47.360Z,17.36
2023-05-14T09:03:13.869Z,17.40
2023-05-14T09:05:40.305Z,17.42
2023-05-14T09:08:06.645Z,17.50
2023-05-14T09:10:33.099Z,17.63
2023-05-14T09:12:59.675Z,17.80
2023-05-14T09:15:26.018Z,17.98
2023-05-14T09:17:53.091Z,18.12
2023-05-14T09:20:19.787Z,18.21
2023-05-14T09:22:46.527Z,18.24
2023-05-14T09:25:13.159Z,18.25
2023-05-14T09:27:39.812Z,18.41
2023-05-14T09:30:10.668Z,18.49
2023-05-14T09:32:38.252Z,18.63
2023-05-14T09:35:19.504Z,18.81
2023-05-14T09:37:47.087Z,18.88
2023-05-14T09:40:14.054Z,19.02
2023-05-14T09:42:40.780Z,19.23
2023-05-14T09:45:08.371Z,19.36
2023-05-14T09:47:34.986Z,19.44
2023-05-14T09:50:01.694Z,19.33
2023-05-14T09:52:28.052Z,19.35
2023-05-14T09:54:54.481Z,19.41
2023-05-14T09:57:21.157Z,19.28
2023-05-14T09:59:47.575Z,19.27
2023-05-14T10:02:25.675Z,19.37
2023-05-14T10:04:53.500Z,19.42
2023-05-14T10:07:24.311Z,19.67
2023-05-14T10:09:53.682Z,19.83
2023-05-14T10:12:20.904Z,20.02
2023-05-14T10:14:49.630Z,20.26
2023-05-14T10:17:18.388Z,20.34
2023-05-14T10:19:51.301Z,20.43
2023-05-14T10:22:18.580Z,20.46
2023-05-14T10:24:45.950Z,20.33
2023-05-14T10:27:12.324Z,20.27
2023-05-14T10:29:38.691Z,20.30
2023-05-14T10:32:06.793Z,20.30
2023-05-14T10:34:37.931Z,20.40
2023-05-14T10:37:27.839Z,20.48
2023-05-14T10:39:57.968Z,20.79
2023-05-14T10:42:27.226Z,20.93
2023-05-14T10:44:57.072Z,21.00
2023-05-14T10:47:23.485Z,21.16
2023-05-14T10:49:49.922Z,21.44
2023-05-14T10:52:18.778Z,21.63
2023-05-14T10:54:52.037Z,21.95
2023-05-14T10:57:19.471Z,22.35
2023-05-14T10:59:54.689Z,22.71
2023-05-14T11:02:28.553Z,22.77
2023-05-14T11:05:05.737Z,23.03
2023-05-14T11:07:33.860Z,23.29
2023-05-14T11:10:02.264Z,23.58
2023-05-14T11:12:28.682Z,23.82
2023-05-14T11:14:59.407Z,24.23
2023-05-14T11:17:26.860Z,24.40
2023-05-14T11:19:54.317Z,24.50
2023-05-14T11:22:20.954Z,24.80
2023-05-14T11:24:47.345Z,24.66
2023-05-14T11:27:13.770Z,25.01
2023-05-14T11:29:43.716Z,25.19
2023-05-14T11:32:10.100Z,24.88
2023-05-14T11:34:37.267Z,24.11
2023-05-14T11:37:06.650Z,23.69
2023-05-14T11:39:33.329Z,23.55
2023-05-14T11:42:02.193Z,23.96
2023-05-14T11:44:28.693Z,23.80
2023-05-14T11:46:58.427Z,23.29
2023-05-14T11:49:25.011Z,23.12
2023-05-14T11:52:00.179Z,22.96
2023-05-14T11:54:29.880Z,22.53
2023-05-14T11:56:56.658Z,22.75
2023-05-14T11:59:28.427Z,22.96
2023-05-14T12:01:55.236Z,22.52
2023-05-14T12:04:27.567Z,22.29
2023-05-14T12:06:54.076Z,22.24
2023-05-14T12:09:21.003Z,22.07
2023-05-14T12:11:48.178Z,22.93
2023-05-14T12:14:15.418Z,24.10
2023-05-14T12:16:42.543Z,25.08
2023-05-14T12:19:11.419Z,25.53
2023-05-14T12:21:38.472Z,25.73
2023-05-14T12:24:05.517Z,26.48
2023-05-14T12:26:35.177Z,27.17
2023-05-14T12:29:03.618Z,27.62
2023-05-14T12:31:36.421Z,27.60
2023-05-14T12:34:03.794Z,27.47
2023-05-14T12:36:32.600Z,27.59
2023-05-14T12:39:01.106Z,27.84
2023-05-14T12:41:27.790Z,27.89
2023-05-14T12:43:54.266Z,27.99
2023-05-14T12:46:20.631Z,27.98
2023-05-14T12:48:47.134Z,27.96
2023-05-14T12:51:13.540Z,27.54
2023-05-14T12:53:39.963Z,27.02
2023-05-14T12:56:06.676Z,27.65
2023-05-14T12:58:33.353Z,28.27
2023-05-14T13:00:59.804Z,27.38
2023-05-14T13:03:26.403Z,26.01
2023-05-14T13:05:53.267Z,25.73
2023-05-14T13:08:21.856Z,25.02
2023-05-14T13:10:48.304Z,25.09
2023-05-14T13:13:17.911Z,24.66
2023-05-14T13:15:46.610Z,24.32
2023-05-14T13:18:13.796Z,24.01
2023-05-14T13:20:43.006Z,23.47
2023-05-14T13:23:09.655Z,24.01
2023-05-14T13:25:36.025Z,24.04
2023-05-14T13:28:02.587Z,23.87
2023-05-14T13:30:29.121Z,23.82
2023-05-14T13:32:55.573Z,23.78
2023-05-14T13:35:22.367Z,24.24
2023-05-14T13:37:48.863Z,25.12
2023-05-14T13:40:15.257Z,25.13
2023-05-14T13:42:41.854Z,24.70
2023-05-14T13:45:08.702Z,24.27
2023-05-14T13:47:35.265Z,23.80
2023-05-14T13:50:01.679Z,23.73
2023-05-14T13:52:28.091Z,23.58
2023-05-14T13:54:54.467Z,22.96
2023-05-14T13:57:22.159Z,22.48
2023-05-14T13:59:48.803Z,22.23
2023-05-14T14:02:15.273Z,21.81
2023-05-14T14:04:41.683Z,21.79
2023-05-14T14:07:08.959Z,21.70
2023-05-14T14:09:36.826Z,21.53
2023-05-14T14:12:04.099Z,21.52
2023-05-14T14:14:30.581Z,21.52
2023-05-14T14:16:57.120Z,21.61
2023-05-14T14:19:23.751Z,21.34
2023-05-14T14:24:17.514Z,21.29
2023-05-14T14:26:43.870Z,21.28
2023-05-14T14:29:10.308Z,21.29
2023-05-14T14:31:36.707Z,21.31
2023-05-14T14:34:03.240Z,21.29
2023-05-14T14:36:30.645Z,21.31
2023-05-14T14:38:57.120Z,21.29
2023-05-14T14:41:23.746Z,21.29
2023-05-14T14:43:50.195Z,21.35
2023-05-14T14:46:16.557Z,21.27
2023-05-14T14:48:43.943Z,21.23
2023-05-14T14:51:10.408Z,21.42
2023-05-14T14:53:37.069Z,21.29
2023-05-14T14:56:03.811Z,21.44
2023-05-14T14:58:30.985Z,21.31
2023-05-14T15:00:57.494Z,21.31
2023-05-14T15:03:24.485Z,21.09
2023-05-14T15:05:52.014Z,21.08
2023-05-14T15:08:18.497Z,21.10
2023-05-14T15:10:45.141Z,21.20
2023-05-14T15:13:12.292Z,21.25
2023-05-14T15:15:38.678Z,21.04
2023-05-14T15:18:05.225Z,21.22
2023-05-14T15:20:31.612Z,21.36
2023-05-14T15:22:58.155Z,21.39
2023-05-14T15:25:24.798Z,21.89
2023-05-14T15:27:51.478Z,22.78
2023-05-14T15:30:17.957Z,22.32
2023-05-14T15:32:44.876Z,22.74
2023-05-14T15:35:11.373Z,24.27
2023-05-14T15:37:39.318Z,24.32
2023-05-14T15:40:09.109Z,25.12
2023-05-14T15:42:41.848Z,24.91
2023-05-14T15:45:09.230Z,26.24
2023-05-14T15:47:36.040Z,25.83
2023-05-14T15:50:02.443Z,26.31
2023-05-14T15:52:28.818Z,26.30
2023-05-14T15:54:57.238Z,26.63
2023-05-14T15:57:23.708Z,25.29
2023-05-14T15:59:50.267Z,25.96
2023-05-14T16:02:16.624Z,27.14
2023-05-14T16:04:45.208Z,25.77
2023-05-14T16:07:12.114Z,23.98
2023-05-14T16:09:38.800Z,23.29
2023-05-14T16:12:06.253Z,23.72
2023-05-14T16:14:35.770Z,23.09
2023-05-14T16:17:02.529Z,22.80
2023-05-14T16:19:29.013Z,23.30
2023-05-14T16:21:55.518Z,24.19
2023-05-14T16:24:22.099Z,25.99
2023-05-14T16:26:48.443Z,26.21
2023-05-14T16:29:14.852Z,27.31
2023-05-14T16:31:41.273Z,27.19
2023-05-14T16:34:07.753Z,26.51
2023-05-14T16:36:34.135Z,24.72
2023-05-14T16:41:30.161Z,24.18
2023-05-14T16:43:56.522Z,23.49
2023-05-14T16:46:23.005Z,22.81
2023-05-14T16:48:50.585Z,22.39
2023-05-14T16:51:16.994Z,21.91
2023-05-14T16:53:43.334Z,21.65
2023-05-14T16:56:09.757Z,21.62
2023-05-14T16:58:36.224Z,21.56
2023-05-14T17:01:02.623Z,21.57
2023-05-14T17:03:29.019Z,21.50
2023-05-14T17:05:55.348Z,21.56
2023-05-14T17:08:21.717Z,21.70
2023-05-14T17:10:48.057Z,21.41
2023-05-14T17:13:14.864Z,21.29
2023-05-14T17:15:42.562Z,21.13
2023-05-14T17:18:09.056Z,21.12
2023-05-14T17:20:35.828Z,20.87
2023-05-14T17:23:02.159Z,20.83
2023-05-14T17:25:28.494Z,20.76
2023-05-14T17:27:54.900Z,20.65
2023-05-14T17:30:21.351Z,20.69
2023-05-14T17:32:50.306Z,20.74
2023-05-14T17:35:17.422Z,20.60
2023-05-14T17:37:43.956Z,20.51
2023-05-14T17:40:10.792Z,20.59
2023-05-14T17:42:37.124Z,20.53
2023-05-14T17:45:03.780Z,20.37
2023-05-14T17:47:30.208Z,20.15
2023-05-14T17:49:56.621Z,20.09
2023-05-14T17:52:22.973Z,20.06
2023-05-14T17:54:49.332Z,19.88
2023-05-14T17:57:15.914Z,19.77
2023-05-14T17:59:42.373Z,19.61
2023-05-14T18:02:08.709Z,19.49
2023-05-14T18:04:35.177Z,19.43
2023-05-14T18:07:03.018Z,19.32
2023-05-14T18:09:29.383Z,19.21
2023-05-14T18:11:57.063Z,19.15
2023-05-14T18:14:23.557Z,19.01
2023-05-14T18:16:50.204Z,18.92
2023-05-14T18:19:16.740Z,18.77
2023-05-14T18:21:43.263Z,18.66
2023-05-14T18:24:09.688Z,18.54
2023-05-14T18:26:36.048Z,18.39
2023-05-14T18:29:02.393Z,18.31
2023-05-14T18:31:28.773Z,18.21
2023-05-14T18:33:55.212Z,18.13
2023-05-14T18:36:21.643Z,18.05
2023-05-14T18:38:48.009Z,17.94
2023-05-14T18:41:14.393Z,17.85
2023-05-14T18:43:41.037Z,17.71
2023-05-14T18:46:07.445Z,17.62
2023-05-14T18:48:33.895Z,17.51
2023-05-14T18:51:01.033Z,17.36
2023-05-14T18:53:29.192Z,17.22
2023-05-14T18:55:56.000Z,17.09
2023-05-14T18:58:22.424Z,17.01
2023-05-14T19:00:48.803Z,16.93
2023-05-14T19:03:15.747Z,16.81
2023-05-14T19:05:42.493Z,16.73
2023-05-14T19:08:08.921Z,16.68
2023-05-14T19:10:35.314Z,16.60
2023-05-14T19:13:02.144Z,16.56
2023-05-14T19:15:28.533Z,16.48
2023-05-14T19:17:54.973Z,16.42
2023-05-14T19:20:21.363Z,16.37
2023-05-14T19:22:47.718Z,16.40
2023-05-14T19:25:14.160Z,16.41
2023-05-14T19:27:40.609Z,16.38
2023-05-14T19:30:07.621Z,16.31
2023-05-14T19:32:35.961Z,16.22
2023-05-14T19:35:02.408Z,16.23
2023-05-14T19:37:28.752Z,16.18
2023-05-14T19:39:55.090Z,16.19
2023-05-14T19:42:21.492Z,16.20
2023-05-14T19:44:47.865Z,16.19
2023-05-14T19:47:14.629Z,16.19
2023-05-14T19:49:41.160Z,16.20
2023-05-14T19:52:07.565Z,16.23
2023-05-14T19:54:33.977Z,16.23
2023-05-14T19:57:00.363Z,16.21
2023-05-14T19:59:26.807Z,16.18
2023-05-14T20:01:54.596Z,16.19
2023-05-14T20:04:21.173Z,16.18
2023-05-14T20:06:47.654Z,16.14
2023-05-14T20:09:14.419Z,16.12
2023-05-14T20:11:40.865Z,16.07
2023-05-14T20:14:07.475Z,16.04
2023-05-14T20:16:33.945Z,16.01
2023-05-14T20:19:00.468Z,15.96
2023-05-14T20:21:26.981Z,15.91
2023-05-14T20:23:53.365Z,15.86
2023-05-14T20:26:19.887Z,15.81
2023-05-14T20:28:46.288Z,15.79
2023-05-14T20:31:12.855Z,15.76
2023-05-14T20:33:39.289Z,15.74
2023-05-14T20:36:05.799Z,15.69
2023-05-14T20:38:34.407Z,15.65
2023-05-14T20:41:00.804Z,15.55
2023-05-14T20:43:27.667Z,15.47
2023-05-14T20:45:54.113Z,15.35
2023-05-14T20:48:21.503Z,15.28
2023-05-14T20:50:47.999Z,15.22
2023-05-14T20:53:14.445Z,15.21
2023-05-14T20:55:41.321Z,15.21
2023-05-14T20:58:07.856Z,15.20
2023-05-14T21:00:34.541Z,15.15
2023-05-14T21:03:01.173Z,15.10
2023-05-14T21:05:27.993Z,15.06
2023-05-14T21:07:54.459Z,15.06
2023-05-14T21:10:20.903Z,15.07
2023-05-14T21:12:47.486Z,15.04
2023-05-14T21:15:13.947Z,15.05
2023-05-14T21:17:40.522Z,15.05
2023-05-14T21:20:07.524Z,15.08
2023-05-14T21:22:33.921Z,15.09
2023-05-14T21:25:00.301Z,15.07
2023-05-14T21:27:26.649Z,15.05
2023-05-14T21:29:53.082Z,15.05
2023-05-14T21:32:20.146Z,15.02
2023-05-14T21:34:46.534Z,14.98
2023-05-14T21:37:12.915Z,14.96
2023-05-14T21:39:39.267Z,14.93
2023-05-14T21:42:05.975Z,14.92
2023-05-14T21:44:32.390Z,14.93
2023-05-14T21:46:59.040Z,14.92
2023-05-14T21:49:25.609Z,14.93
2023-05-14T21:51:54.061Z,14.92
2023-05-14T21:54:20.861Z,14.90
2023-05-14T21:56:47.390Z,14.89
2023-05-14T21:59:13.724Z,14.87
2023-05-14T22:02:04.743Z,14.84
2023-05-14T22:04:26.522Z,14.81
2023-05-14T22:06:53.098Z,14.75
2023-05-14T22:09:19.482Z,14.70
2023-05-14T22:11:45.841Z,14.67
2023-05-14T22:14:12.256Z,14.61
2023-05-14T22:16:38.646Z,14.58
2023-05-14T22:19:06.585Z,14.53
2023-05-14T22:21:33.301Z,14.54
2023-05-14T22:23:59.642Z,14.54
2023-05-14T22:26:26.058Z,14.50
2023-05-14T22:28:52.732Z,14.50
2023-05-14T22:31:19.155Z,14.50
2023-05-14T22:33:45.518Z,14.51
2023-05-14T22:36:11.986Z,14.53
2023-05-14T22:38:41.030Z,14.52
2023-05-14T22:41:07.380Z,14.50
2023-05-14T22:43:33.997Z,14.48
2023-05-14T22:46:00.468Z,14.47
2023-05-14T22:48:26.912Z,14.47
2023-05-14T22:50:53.388Z,14.47
2023-05-14T22:53:19.735Z,14.49
2023-05-14T22:55:46.174Z,14.49
2023-05-14T22:58:12.560Z,14.54
2023-05-14T23:00:38.925Z,14.56
2023-05-14T23:03:05.322Z,14.62
2023-05-14T23:05:31.720Z,14.61
2023-05-14T23:07:58.085Z,14.60
2023-05-14T23:10:24.461Z,14.53
2023-05-14T23:12:51.034Z,14.55
2023-05-14T23:15:17.378Z,14.49
2023-05-14T23:17:43.839Z,14.39
2023-05-14T23:20:12.670Z,14.36
2023-05-14T23:22:39.944Z,14.38
2023-05-14T23:25:07.631Z,14.37
2023-05-14T23:27:34.797Z,14.37
2023-05-14T23:30:01.231Z,14.38
2023-05-14T23:32:27.633Z,14.37
2023-05-14T23:34:54.173Z,14.33
2023-05-14T23:37:20.600Z,14.30
2023-05-14T23:39:46.976Z,14.27
2023-05-14T23:42:13.366Z,14.22
2023-05-14T23:44:39.710Z,14.19
2023-05-14T23:47:07.252Z,14.17
2023-05-14T23:49:33.711Z,14.13
2023-05-14T23:52:00.148Z,14.09
2023-05-14T23:54:26.543Z,14.05
2023-05-14T23:56:52.989Z,14.02
2023-05-14T23:59:19.318Z,14.03
